Time;durP1;ratioP1;P1;durP2;ratioP2;P2;SDS_P1;SDS_P2;PMS_P1;PMS_P2;Temp;Humidity;BMP_temperature;BMP_pressure;BME280_temperature;BME280_humidity;BME280_pressure;Samples;Min_cycle;Max_cycle;Signal;HPM_P1;HPM_P2
2022/01/30 00:00:20;;;;;;;17.00;3.30;;;7.90;99.90;;;;;;5062330;28;20330;-54
2022/01/30 00:02:47;;;;;;;13.20;2.57;;;8.00;99.90;;;;;;5082624;28;20218;-53
2022/01/30 00:05:14;;;;;;;13.53;3.30;;;7.80;99.90;;;;;;5082032;28;20333;-54
2022/01/30 00:07:40;;;;;;;14.07;2.60;;;7.90;99.90;;;;;;5083097;28;20202;-54
2022/01/30 00:10:11;;;;;;;11.23;2.30;;;7.90;99.90;;;;;;5079800;28;20654;-54
2022/01/30 00:15:12;;;;;;;16.53;2.87;;;7.90;99.90;;;;;;5081984;28;20201;-55
2022/01/30 00:17:49;;;;;;;10.97;2.73;;;7.80;99.90;;;;;;5082788;28;20222;-55
2022/01/30 00:20:23;;;;;;;15.67;2.67;;;7.70;99.90;;;;;;5084709;28;20293;-53
2022/01/30 00:25:31;;;;;;;18.93;3.07;;;7.70;99.90;;;;;;5081464;28;20616;-53
2022/01/30 00:28:05;;;;;;;19.93;3.27;;;7.70;99.90;;;;;;5085855;28;20264;-53
2022/01/30 00:30:35;;;;;;;12.60;2.67;;;7.60;99.90;;;;;;5085465;28;20566;-53
2022/01/30 00:33:03;;;;;;;17.37;3.20;;;7.70;99.90;;;;;;5069915;28;20206;-54
2022/01/30 00:35:33;;;;;;;14.97;3.33;;;7.50;99.90;;;;;;5084791;28;20227;-54
2022/01/30 00:38:01;;;;;;;19.73;3.10;;;7.50;99.90;;;;;;5086888;28;20238;-53
2022/01/30 00:40:33;;;;;;;14.37;3.00;;;7.60;99.90;;;;;;5069771;28;20210;-53
2022/01/30 00:43:01;;;;;;;13.17;2.70;;;7.70;99.90;;;;;;5083838;28;20579;-54
2022/01/30 00:45:28;;;;;;;18.30;3.60;;;7.70;99.90;;;;;;5084064;28;20662;-58
2022/01/30 00:47:55;;;;;;;14.23;3.10;;;7.80;99.90;;;;;;5087025;28;20195;-55
2022/01/30 00:50:23;;;;;;;19.70;3.33;;;7.60;99.90;;;;;;5082352;28;20289;-55
2022/01/30 00:52:53;;;;;;;15.73;3.13;;;7.60;99.90;;;;;;5081305;28;20256;-55
2022/01/30 00:55:27;;;;;;;14.80;2.90;;;7.50;99.90;;;;;;5064487;28;20634;-55
2022/01/30 00:57:55;;;;;;;13.80;2.93;;;7.60;99.90;;;;;;5082468;28;20199;-55
2022/01/30 01:00:25;;;;;;;16.57;3.70;;;7.50;99.90;;;;;;5083057;28;20257;-55
2022/01/30 01:02:52;;;;;;;17.90;3.23;;;7.50;99.90;;;;;;5084738;28;20266;-55
2022/01/30 01:05:20;;;;;;;14.33;2.77;;;7.60;99.90;;;;;;5080012;28;20745;-54
2022/01/30 01:07:49;;;;;;;20.13;4.40;;;7.60;99.90;;;;;;5081231;28;20282;-54
2022/01/30 01:10:35;;;;;;;18.80;3.20;;;7.60;99.90;;;;;;5079036;28;20259;-56
2022/01/30 01:23:59;;;;;;;17.40;3.00;;;7.40;99.90;;;;;;5081725;28;20241;-54
2022/01/30 01:26:26;;;;;;;22.03;3.13;;;7.40;99.90;;;;;;5081959;28;20557;-53
2022/01/30 01:28:54;;;;;;;19.57;4.00;;;7.50;99.90;;;;;;5082330;28;20560;-55
2022/01/30 01:31:21;;;;;;;12.77;2.50;;;7.40;99.90;;;;;;5078173;28;20226;-56
2022/01/30 01:34:04;;;;;;;13.10;3.57;;;7.50;99.90;;;;;;5082502;28;20199;-54
2022/01/30 01:36:31;;;;;;;16.93;4.23;;;7.40;99.90;;;;;;5080754;28;20298;-54
2022/01/30 01:38:58;;;;;;;13.13;2.80;;;7.30;99.90;;;;;;5082404;28;20241;-55
2022/01/30 01:41:26;;;;;;;13.07;2.90;;;7.30;99.90;;;;;;5084488;28;20200;-55
2022/01/30 01:43:53;;;;;;;11.23;2.33;;;7.40;99.90;;;;;;5083154;28;20942;-55
2022/01/30 01:46:27;;;;;;;12.40;2.40;;;7.30;99.90;;;;;;5080547;28;20297;-54
2022/01/30 01:48:55;;;;;;;15.00;2.27;;;7.40;99.90;;;;;;5084792;28;20198;-57
2022/01/30 01:51:24;;;;;;;10.37;2.53;;;7.50;99.90;;;;;;5084037;28;20237;-53
2022/01/30 01:53:56;;;;;;;9.90;2.60;;;7.40;99.90;;;;;;5078144;28;20334;-55
2022/01/30 01:56:24;;;;;;;15.93;3.17;;;7.40;99.90;;;;;;5082291;28;20303;-54
2022/01/30 01:58:51;;;;;;;14.90;2.60;;;7.30;99.90;;;;;;5082350;28;20201;-54
2022/01/30 02:01:18;;;;;;;15.27;2.70;;;7.30;99.90;;;;;;5083033;28;20291;-55
2022/01/30 02:03:45;;;;;;;15.90;3.33;;;7.40;99.90;;;;;;5068246;28;20217;-54
2022/01/30 02:06:17;;;;;;;14.37;3.20;;;7.20;99.90;;;;;;5082900;28;20199;-54
2022/01/30 02:08:57;;;;;;;16.07;2.77;;;7.20;99.90;;;;;;5063597;28;20224;-53
2022/01/30 02:27:55;;;;;;;12.67;2.57;;;7.10;99.90;;;;;;5084521;28;20675;-53
2022/01/30 02:30:22;;;;;;;16.03;2.77;;;7.20;99.90;;;;;;5082667;28;20225;-55
2022/01/30 02:32:50;;;;;;;18.17;3.03;;;7.20;99.90;;;;;;5086794;28;20234;-53
2022/01/30 02:35:17;;;;;;;17.43;3.43;;;7.20;99.90;;;;;;5065214;28;20214;-53
2022/01/30 02:37:44;;;;;;;19.10;2.83;;;7.10;99.90;;;;;;5067015;28;20250;-54
2022/01/30 02:40:12;;;;;;;15.70;2.60;;;7.10;99.90;;;;;;5082801;28;20523;-54
2022/01/30 02:42:46;;;;;;;15.43;2.70;;;7.10;99.90;;;;;;5079731;28;20215;-55
2022/01/30 02:45:15;;;;;;;10.23;3.37;;;7.10;99.90;;;;;;5081451;28;20199;-54
2022/01/30 02:53:07;;;;;;;11.50;2.60;;;7.10;99.90;;;;;;5084647;28;20210;-54
2022/01/30 02:55:35;;;;;;;16.20;2.63;;;7.00;99.90;;;;;;5084808;28;20290;-54
2022/01/30 02:58:02;;;;;;;12.47;3.23;;;7.00;99.90;;;;;;5067296;28;20210;-55
2022/01/30 03:00:29;;;;;;;20.73;3.67;;;7.10;99.90;;;;;;5082167;28;20674;-54
2022/01/30 03:02:56;;;;;;;20.60;3.00;;;7.00;99.90;;;;;;5084725;28;20239;-55
2022/01/30 03:05:23;;;;;;;14.03;2.60;;;6.90;99.90;;;;;;5084723;28;20591;-55
2022/01/30 03:07:52;;;;;;;16.97;3.40;;;6.90;99.90;;;;;;5083708;28;20191;-55
2022/01/30 03:10:19;;;;;;;13.73;2.73;;;6.90;99.90;;;;;;5067354;28;20240;-55
2022/01/30 03:12:46;;;;;;;11.33;3.00;;;6.90;99.90;;;;;;5085285;28;20204;-54
2022/01/30 03:15:13;;;;;;;15.60;2.87;;;7.00;99.90;;;;;;5086119;28;20781;-54
2022/01/30 03:17:40;;;;;;;12.37;2.77;;;7.00;99.90;;;;;;5085431;28;20588;-55
2022/01/30 03:20:08;;;;;;;19.50;2.70;;;7.00;99.90;;;;;;5087141;28;20211;-54
2022/01/30 03:22:35;;;;;;;11.10;1.90;;;7.00;99.90;;;;;;5088095;28;20253;-54
2022/01/30 03:25:03;;;;;;;15.73;2.40;;;7.00;99.90;;;;;;5088043;28;20609;-54
2022/01/30 03:27:30;;;;;;;12.00;3.17;;;6.90;99.90;;;;;;5085996;28;20422;-54
2022/01/30 03:30:04;;;;;;;17.37;2.70;;;7.00;99.90;;;;;;5086608;28;20202;-55
2022/01/30 03:32:31;;;;;;;13.40;2.60;;;7.00;99.90;;;;;;5088566;28;20634;-55
2022/01/30 03:34:58;;;;;;;15.20;2.53;;;7.10;99.90;;;;;;5086865;28;20627;-55
2022/01/30 03:37:26;;;;;;;14.53;2.63;;;7.00;99.90;;;;;;5085017;28;20234;-55
2022/01/30 03:39:53;;;;;;;9.43;2.20;;;7.10;99.90;;;;;;5087449;28;20226;-54
2022/01/30 03:42:20;;;;;;;13.03;2.60;;;7.10;99.90;;;;;;5089604;28;20629;-54
2022/01/30 03:44:47;;;;;;;12.63;2.67;;;7.10;99.90;;;;;;5087059;28;20298;-55
2022/01/30 03:47:14;;;;;;;10.20;2.33;;;7.00;99.90;;;;;;5089685;28;20227;-54
2022/01/30 03:49:41;;;;;;;5.30;1.50;;;7.00;99.90;;;;;;5088939;28;20659;-54
2022/01/30 03:52:08;;;;;;;14.37;2.43;;;7.00;99.90;;;;;;5085359;28;20800;-54
2022/01/30 03:54:35;;;;;;;8.90;2.03;;;7.00;99.90;;;;;;5073155;28;20232;-54
2022/01/30 03:57:03;;;;;;;4.83;1.53;;;7.10;99.90;;;;;;5087727;28;20215;-56
2022/01/30 03:59:30;;;;;;;10.13;3.10;;;7.00;99.90;;;;;;5084389;28;20222;-54
2022/01/30 04:01:57;;;;;;;4.83;1.57;;;7.00;99.90;;;;;;5088126;28;20817;-56
2022/01/30 04:04:25;;;;;;;10.80;2.03;;;7.00;99.90;;;;;;5087594;28;20246;-55
2022/01/30 04:06:52;;;;;;;7.03;1.70;;;7.00;99.90;;;;;;5086486;28;20211;-55
2022/01/30 04:09:19;;;;;;;5.93;1.37;;;7.10;99.90;;;;;;5084482;28;20241;-56
2022/01/30 04:11:46;;;;;;;8.03;1.77;;;7.20;99.90;;;;;;5088715;28;20241;-53
2022/01/30 04:14:13;;;;;;;7.50;1.63;;;7.20;99.90;;;;;;5067165;28;20685;-54
2022/01/30 04:16:40;;;;;;;13.87;1.93;;;7.10;99.90;;;;;;5087829;28;20210;-54
2022/01/30 04:19:07;;;;;;;10.07;1.73;;;7.10;99.90;;;;;;5085248;28;20254;-54
2022/01/30 04:21:34;;;;;;;10.37;1.70;;;7.10;99.90;;;;;;5085655;28;20230;-54
2022/01/30 04:24:01;;;;;;;8.53;1.60;;;7.10;99.90;;;;;;5085873;28;20578;-52
2022/01/30 04:26:27;;;;;;;6.73;1.70;;;7.20;99.90;;;;;;5067882;28;20627;-53
2022/01/30 04:28:55;;;;;;;9.47;2.30;;;7.20;99.90;;;;;;5087293;28;20285;-53
2022/01/30 04:31:22;;;;;;;9.20;1.60;;;7.10;99.90;;;;;;5068651;28;20256;-54
2022/01/30 04:33:49;;;;;;;5.33;1.40;;;7.10;99.90;;;;;;5085191;28;20642;-54
2022/01/30 04:36:22;;;;;;;6.33;1.40;;;7.00;99.90;;;;;;5086952;28;20234;-51
2022/01/30 04:39:08;;;;;;;5.00;1.60;;;7.00;99.90;;;;;;5086730;28;20313;-54
2022/01/30 04:52:53;;;;;;;8.30;1.87;;;7.00;99.90;;;;;;5086249;28;20203;-59
2022/01/30 04:56:17;;;;;;;7.23;1.83;;;7.00;99.90;;;;;;5083604;28;20888;-54
2022/01/30 04:59:13;;;;;;;10.57;1.70;;;7.00;99.90;;;;;;5088767;28;20196;-54
2022/01/30 05:01:23;;;;;;;11.90;2.27;;;7.00;99.90;;;;;;5065080;28;20324;-53
2022/01/30 05:04:03;;;;;;;8.27;1.63;;;6.90;99.90;;;;;;5072647;28;20226;-54
2022/01/30 05:06:51;;;;;;;9.07;2.27;;;6.90;99.90;;;;;;5072413;28;20233;-54
2022/01/30 05:09:17;;;;;;;6.30;1.70;;;6.80;99.90;;;;;;5072059;28;20253;-56
2022/01/30 05:11:44;;;;;;;11.37;1.60;;;6.80;99.90;;;;;;5071973;28;20203;-54
2022/01/30 05:14:13;;;;;;;9.80;1.80;;;6.80;99.90;;;;;;5074654;28;20230;-55
2022/01/30 05:16:40;;;;;;;10.57;2.17;;;6.80;99.90;;;;;;5073507;28;20730;-54
2022/01/30 05:19:07;;;;;;;11.63;1.77;;;6.80;99.90;;;;;;5072008;28;20202;-56
2022/01/30 05:21:34;;;;;;;12.77;1.70;;;6.70;99.90;;;;;;5075010;28;20527;-52
2022/01/30 05:24:01;;;;;;;8.97;1.83;;;6.60;99.90;;;;;;5071465;28;20713;-53
2022/01/30 05:26:29;;;;;;;7.63;1.53;;;6.60;99.90;;;;;;5070813;28;20295;-55
2022/01/30 05:28:56;;;;;;;8.63;1.60;;;6.70;99.90;;;;;;5070572;28;20210;-55
2022/01/30 05:31:23;;;;;;;6.60;1.90;;;6.60;99.90;;;;;;5075357;28;20210;-53
2022/01/30 05:33:50;;;;;;;10.67;1.67;;;6.80;99.90;;;;;;5073542;28;20513;-55
2022/01/30 05:36:19;;;;;;;9.37;1.47;;;6.70;99.90;;;;;;5072469;28;20637;-54
2022/01/30 05:38:47;;;;;;;7.40;1.70;;;6.70;99.90;;;;;;5071461;28;20234;-55
2022/01/30 05:41:14;;;;;;;9.63;1.93;;;6.60;99.90;;;;;;5062360;28;20237;-54
2022/01/30 05:43:42;;;;;;;7.73;1.83;;;6.60;99.90;;;;;;5074425;28;20663;-55
2022/01/30 05:46:16;;;;;;;8.33;1.50;;;6.40;99.90;;;;;;5072758;28;20199;-54
2022/01/30 05:48:43;;;;;;;11.43;2.13;;;6.50;99.90;;;;;;5072442;28;20332;-55
2022/01/30 05:51:10;;;;;;;11.10;1.80;;;6.50;99.90;;;;;;5076124;28;20732;-54
2022/01/30 05:53:37;;;;;;;12.17;1.43;;;6.40;99.90;;;;;;5073564;28;20738;-55
2022/01/30 05:56:05;;;;;;;10.00;1.97;;;6.40;99.90;;;;;;5073663;28;20205;-56
2022/01/30 05:58:32;;;;;;;8.37;1.40;;;6.50;99.90;;;;;;5074991;28;20259;-53
2022/01/30 06:00:59;;;;;;;9.03;2.03;;;6.60;99.90;;;;;;5075307;28;20246;-55
2022/01/30 06:03:26;;;;;;;11.83;2.77;;;6.30;99.90;;;;;;5094030;28;20264;-55
2022/01/30 06:05:53;;;;;;;4.47;1.50;;;6.20;99.90;;;;;;5080219;28;21066;-53
2022/01/30 06:11:09;;;;;;;12.33;1.53;;;6.30;99.90;;;;;;5088776;28;20533;-54
2022/01/30 06:13:36;;;;;;;9.53;1.90;;;6.30;99.90;;;;;;5063815;28;20255;-54
2022/01/30 06:16:04;;;;;;;9.63;2.10;;;6.40;99.90;;;;;;5094622;28;20194;-55
2022/01/30 06:18:31;;;;;;;5.87;1.23;;;6.50;99.90;;;;;;5094435;28;20195;-54
2022/01/30 06:20:58;;;;;;;7.73;1.60;;;6.60;99.90;;;;;;5097194;28;20213;-55
2022/01/30 06:23:28;;;;;;;6.07;1.83;;;6.60;99.90;;;;;;5097429;28;20755;-55
2022/01/30 06:25:56;;;;;;;10.90;2.33;;;6.60;99.90;;;;;;5077382;28;20230;-55
2022/01/30 06:28:23;;;;;;;11.13;2.10;;;6.70;99.90;;;;;;5095607;28;20298;-52
2022/01/30 06:30:49;;;;;;;11.17;1.70;;;6.70;99.90;;;;;;5077360;28;20631;-53
2022/01/30 06:33:16;;;;;;;6.53;1.70;;;6.70;99.90;;;;;;5096696;28;20274;-54
2022/01/30 06:35:43;;;;;;;9.07;1.90;;;6.70;99.90;;;;;;5097234;28;20598;-54
2022/01/30 06:38:10;;;;;;;7.57;1.87;;;6.80;99.90;;;;;;5077507;28;20196;-54
2022/01/30 06:40:37;;;;;;;13.53;1.97;;;6.70;99.90;;;;;;5094596;28;20260;-54
2022/01/30 06:43:04;;;;;;;4.90;1.90;;;6.80;99.90;;;;;;5092662;28;20705;-54
2022/01/30 06:45:34;;;;;;;8.47;1.83;;;6.70;99.90;;;;;;5096990;28;20226;-54
2022/01/30 06:48:01;;;;;;;10.47;2.90;;;6.70;99.90;;;;;;5097067;28;20205;-54
2022/01/30 06:50:28;;;;;;;12.97;1.90;;;6.60;99.90;;;;;;5095533;28;20614;-54
2022/01/30 06:52:55;;;;;;;13.67;2.20;;;6.60;99.90;;;;;;5096000;28;20232;-54
2022/01/30 06:55:22;;;;;;;10.87;1.80;;;6.50;99.90;;;;;;5094316;28;20655;-54
2022/01/30 06:57:49;;;;;;;9.17;3.00;;;6.60;99.90;;;;;;5091781;28;20217;-55
2022/01/30 07:00:16;;;;;;;9.50;3.20;;;6.50;99.90;;;;;;5085886;28;20605;-55
2022/01/30 07:02:42;;;;;;;8.23;1.60;;;6.60;99.90;;;;;;5084103;28;20250;-54
2022/01/30 07:05:10;;;;;;;14.50;1.70;;;6.50;99.90;;;;;;5084706;28;20224;-53
2022/01/30 07:07:37;;;;;;;11.27;2.00;;;6.50;99.90;;;;;;5064089;28;20318;-53
2022/01/30 07:10:08;;;;;;;15.23;2.70;;;6.50;99.90;;;;;;5074169;28;20775;-53
2022/01/30 07:12:35;;;;;;;13.87;2.00;;;6.60;99.90;;;;;;5082835;28;20660;-53
2022/01/30 07:15:03;;;;;;;8.50;2.10;;;6.60;99.90;;;;;;5086827;28;20665;-53
2022/01/30 07:17:30;;;;;;;17.57;2.63;;;6.60;99.90;;;;;;5094981;28;20613;-54
2022/01/30 07:19:56;;;;;;;14.40;2.70;;;6.50;99.90;;;;;;5089175;28;20222;-55
2022/01/30 07:22:23;;;;;;;11.27;1.97;;;6.60;99.90;;;;;;5086152;28;20203;-54
2022/01/30 07:24:50;;;;;;;6.90;1.53;;;6.60;99.90;;;;;;5080573;28;20651;-55
2022/01/30 07:27:17;;;;;;;8.13;2.03;;;6.60;99.90;;;;;;5083917;28;20203;-52
2022/01/30 07:29:44;;;;;;;9.00;2.00;;;6.60;99.90;;;;;;5085900;28;20680;-53
2022/01/30 07:32:11;;;;;;;11.23;2.10;;;6.50;99.90;;;;;;5082972;28;20229;-56
2022/01/30 07:34:38;;;;;;;9.33;1.70;;;6.50;99.90;;;;;;5085650;28;20566;-55
2022/01/30 07:37:05;;;;;;;15.57;2.90;;;6.60;99.90;;;;;;5066991;28;20210;-53
2022/01/30 07:39:32;;;;;;;9.83;2.70;;;6.30;99.90;;;;;;5063547;28;20282;-53
2022/01/30 07:41:59;;;;;;;13.13;2.33;;;6.40;99.90;;;;;;5084433;28;20210;-54
2022/01/30 07:44:26;;;;;;;12.60;2.20;;;6.50;99.90;;;;;;5084025;28;20230;-54
2022/01/30 07:46:53;;;;;;;10.30;1.60;;;6.50;99.90;;;;;;5085462;28;20551;-54
2022/01/30 07:49:20;;;;;;;10.90;2.23;;;6.50;99.90;;;;;;5067524;28;20196;-57
2022/01/30 07:51:47;;;;;;;15.03;2.40;;;6.50;99.90;;;;;;5084960;28;20246;-54
2022/01/30 07:54:14;;;;;;;10.60;2.00;;;6.50;99.90;;;;;;5083501;28;20266;-55
2022/01/30 07:56:41;;;;;;;12.60;1.90;;;6.50;99.90;;;;;;5078652;28;20207;-55
2022/01/30 07:59:09;;;;;;;13.90;1.87;;;6.50;99.90;;;;;;5085336;28;20204;-55
2022/01/30 08:01:36;;;;;;;13.20;2.50;;;6.60;99.90;;;;;;5057613;28;20247;-55
2022/01/30 08:04:06;;;;;;;13.17;3.00;;;6.60;99.90;;;;;;5071981;28;20304;-53
2022/01/30 08:06:34;;;;;;;14.67;2.37;;;6.70;99.90;;;;;;5069844;28;20198;-52
2022/01/30 08:09:00;;;;;;;14.13;1.97;;;6.80;99.90;;;;;;5071410;28;20355;-56
2022/01/30 08:11:27;;;;;;;7.73;1.90;;;6.70;99.90;;;;;;5074060;28;20507;-53
2022/01/30 08:13:54;;;;;;;11.37;2.40;;;6.80;99.90;;;;;;5072351;28;20211;-56
2022/01/30 08:16:26;;;;;;;10.17;1.97;;;6.80;99.90;;;;;;5058370;28;20717;-56
2022/01/30 08:18:53;;;;;;;10.57;2.30;;;7.00;99.90;;;;;;5094796;28;20527;-57
2022/01/30 08:21:20;;;;;;;11.47;2.50;;;7.00;99.90;;;;;;5084116;28;20202;-55
2022/01/30 08:23:48;;;;;;;10.40;2.27;;;7.00;99.90;;;;;;5093132;28;20201;-54
2022/01/30 08:26:15;;;;;;;13.10;2.40;;;6.90;99.90;;;;;;5092285;28;20196;-55
2022/01/30 08:28:42;;;;;;;15.63;2.23;;;6.80;99.90;;;;;;5093757;28;20619;-55
2022/01/30 08:31:08;;;;;;;16.67;3.50;;;6.90;99.90;;;;;;5095831;28;20290;-54
2022/01/30 08:33:35;;;;;;;15.90;2.53;;;6.90;99.90;;;;;;5094730;28;20292;-54
2022/01/30 08:36:02;;;;;;;15.40;2.97;;;7.00;99.90;;;;;;5095726;28;20205;-53
2022/01/30 08:38:29;;;;;;;9.17;2.37;;;7.10;99.90;;;;;;5095315;28;20608;-56
2022/01/30 08:40:59;;;;;;;10.73;2.57;;;7.10;99.90;;;;;;5092940;28;20634;-54
2022/01/30 08:43:29;;;;;;;10.27;2.00;;;7.00;99.90;;;;;;5094385;28;20727;-54
2022/01/30 08:45:56;;;;;;;10.70;2.80;;;7.10;99.90;;;;;;5096082;28;20288;-54
2022/01/30 08:48:22;;;;;;;12.70;2.13;;;7.20;99.90;;;;;;5092504;28;20288;-56
2022/01/30 08:50:51;;;;;;;14.07;2.43;;;7.20;99.90;;;;;;5094724;28;20198;-54
2022/01/30 08:53:17;;;;;;;15.80;2.53;;;7.40;99.90;;;;;;5090579;28;20607;-55
2022/01/30 08:55:44;;;;;;;17.03;2.50;;;7.60;99.90;;;;;;5093734;28;20333;-55
2022/01/30 08:58:11;;;;;;;12.63;2.63;;;7.50;99.90;;;;;;5096648;28;20205;-56
2022/01/30 09:00:41;;;;;;;11.87;2.40;;;7.60;99.90;;;;;;5095040;28;20578;-55
2022/01/30 09:03:08;;;;;;;12.67;2.87;;;7.60;99.90;;;;;;5073284;28;20710;-54
2022/01/30 09:05:36;;;;;;;19.60;3.60;;;7.60;99.90;;;;;;5079605;28;20223;-56
2022/01/30 09:08:05;;;;;;;13.57;3.00;;;7.80;99.90;;;;;;5078007;28;20203;-57
2022/01/30 09:10:36;;;;;;;14.57;3.17;;;7.70;99.90;;;;;;5075878;28;20219;-55
2022/01/30 09:13:04;;;;;;;14.83;2.73;;;7.80;99.90;;;;;;5087052;28;20208;-56
2022/01/30 09:15:39;;;;;;;18.60;3.07;;;7.80;99.90;;;;;;5078787;28;20200;-55
2022/01/30 09:18:09;;;;;;;14.57;4.50;;;7.60;99.90;;;;;;5081315;28;20204;-57
2022/01/30 09:20:38;;;;;;;15.57;3.70;;;7.90;99.90;;;;;;5080858;28;20209;-56
2022/01/30 09:23:05;;;;;;;12.80;2.73;;;7.80;99.90;;;;;;5076221;28;20257;-55
2022/01/30 09:25:32;;;;;;;11.73;2.57;;;7.70;99.90;;;;;;5080394;28;20220;-54
2022/01/30 09:27:59;;;;;;;17.90;2.93;;;7.90;99.90;;;;;;5082756;28;20260;-55
2022/01/30 09:30:26;;;;;;;11.87;2.47;;;8.10;99.90;;;;;;5081900;28;20217;-55
2022/01/30 09:32:53;;;;;;;15.63;3.43;;;8.60;99.90;;;;;;5075327;28;20198;-56
2022/01/30 09:35:20;;;;;;;16.03;3.27;;;8.90;99.90;;;;;;5062078;28;20210;-56
2022/01/30 09:37:47;;;;;;;16.47;3.33;;;8.70;99.90;;;;;;5072059;28;20253;-55
2022/01/30 09:40:14;;;;;;;20.73;3.33;;;8.40;99.90;;;;;;5062335;28;20256;-58
2022/01/30 09:42:43;;;;;;;14.23;3.00;;;8.70;99.90;;;;;;5079864;28;20291;-58
2022/01/30 09:45:15;;;;;;;12.63;2.50;;;9.30;99.90;;;;;;5079354;28;20218;-55
2022/01/30 09:47:42;;;;;;;12.17;3.10;;;9.70;99.90;;;;;;5065323;28;20591;-55
2022/01/30 09:50:09;;;;;;;22.70;3.47;;;10.10;99.90;;;;;;5082795;28;20238;-55
2022/01/30 09:52:38;;;;;;;11.33;2.87;;;10.30;99.90;;;;;;5083825;28;20205;-54
2022/01/30 09:55:08;;;;;;;11.40;3.40;;;10.20;99.90;;;;;;5081184;28;20663;-54
2022/01/30 09:57:36;;;;;;;13.90;3.20;;;10.40;99.90;;;;;;5082584;28;20291;-54
2022/01/30 10:00:08;;;;;;;17.00;2.97;;;10.50;99.90;;;;;;5081636;28;20570;-56
2022/01/30 10:02:35;;;;;;;11.60;3.17;;;10.50;99.90;;;;;;5080603;28;20368;-54
2022/01/30 10:05:03;;;;;;;10.63;3.20;;;10.70;99.90;;;;;;5078197;28;20252;-54
2022/01/30 10:07:49;;;;;;;14.00;2.70;;;10.40;99.90;;;;;;5079814;28;20205;-55
2022/01/30 10:10:18;;;;;;;15.87;3.83;;;10.40;99.90;;;;;;5076687;28;20225;-54
2022/01/30 10:13:05;;;;;;;14.27;2.97;;;10.60;99.90;;;;;;5056699;28;20208;-55
2022/01/30 10:15:51;;;;;;;16.40;2.63;;;11.10;99.90;;;;;;5076738;28;20198;-54
2022/01/30 10:18:20;;;;;;;13.03;2.93;;;10.90;99.90;;;;;;5076878;28;20198;-55
2022/01/30 10:20:47;;;;;;;13.73;3.07;;;10.70;99.90;;;;;;5075856;28;20199;-55
2022/01/30 10:23:14;;;;;;;12.33;3.50;;;10.60;99.90;;;;;;5077806;28;20203;-57
2022/01/30 10:25:47;;;;;;;13.37;2.90;;;10.00;99.90;;;;;;5077667;28;20344;-54
2022/01/30 10:28:18;;;;;;;10.00;3.07;;;10.50;99.90;;;;;;5079909;28;20600;-53
2022/01/30 10:30:53;;;;;;;15.90;3.10;;;10.60;99.90;;;;;;5073578;28;20260;-55
2022/01/30 10:33:27;;;;;;;11.27;2.80;;;10.90;99.90;;;;;;5061133;28;20861;-54
2022/01/30 10:35:58;;;;;;;10.13;2.50;;;11.20;99.90;;;;;;5058897;28;20199;-54
2022/01/30 10:38:38;;;;;;;15.17;3.67;;;11.20;99.90;;;;;;5079113;28;20197;-54
2022/01/30 10:41:19;;;;;;;17.00;3.27;;;11.00;99.90;;;;;;5078993;28;20251;-53
2022/01/30 10:44:05;;;;;;;15.30;4.13;;;10.70;99.90;;;;;;5076544;28;20216;-54
2022/01/30 10:46:40;;;;;;;16.73;3.20;;;10.20;99.90;;;;;;5080977;28;20827;-55
2022/01/30 10:49:11;;;;;;;9.83;2.90;;;10.00;99.90;;;;;;5083393;28;20251;-57
2022/01/30 10:51:39;;;;;;;16.37;3.70;;;10.50;99.90;;;;;;5085068;28;20198;-54
2022/01/30 10:54:09;;;;;;;15.03;2.77;;;10.50;99.90;;;;;;5084418;28;20198;-55
2022/01/30 10:56:37;;;;;;;12.87;2.77;;;10.30;99.90;;;;;;5084372;28;20209;-54
2022/01/30 10:59:21;;;;;;;9.67;2.90;;;10.20;99.90;;;;;;5074056;28;20198;-54
2022/01/30 11:01:51;;;;;;;17.03;2.90;;;10.30;99.90;;;;;;5076960;28;20784;-53
2022/01/30 11:04:22;;;;;;;13.27;3.07;;;10.30;99.90;;;;;;5062662;28;20565;-53
2022/01/30 11:06:49;;;;;;;14.30;2.93;;;10.40;99.90;;;;;;5084687;28;20218;-53
2022/01/30 11:09:22;;;;;;;12.07;3.13;;;10.80;99.90;;;;;;5080188;28;20283;-55
2022/01/30 11:12:37;;;;;;;14.37;3.63;;;11.00;99.90;;;;;;5078496;28;20284;-54
2022/01/30 11:14:52;;;;;;;12.03;3.17;;;11.20;99.90;;;;;;5071207;28;20226;-53
2022/01/30 11:17:22;;;;;;;15.80;2.70;;;11.40;99.90;;;;;;5076672;28;20206;-53
2022/01/30 11:19:53;;;;;;;13.30;2.50;;;11.20;99.90;;;;;;5083411;28;20200;-54
2022/01/30 11:22:22;;;;;;;14.07;3.37;;;11.10;99.90;;;;;;5075261;28;20260;-56
2022/01/30 11:25:02;;;;;;;9.37;2.53;;;10.60;99.90;;;;;;5079943;28;20614;-57
2022/01/30 11:27:31;;;;;;;16.03;2.60;;;10.30;99.90;;;;;;5078282;28;20263;-56
2022/01/30 11:29:59;;;;;;;14.20;2.63;;;10.10;99.90;;;;;;5059217;28;20214;-55
2022/01/30 11:32:27;;;;;;;18.10;2.73;;;10.00;99.90;;;;;;5077940;28;20630;-57
2022/01/30 11:34:56;;;;;;;14.30;2.97;;;10.20;99.90;;;;;;5075810;28;20334;-56
2022/01/30 11:37:32;;;;;;;12.20;2.93;;;10.20;99.90;;;;;;5081674;28;20296;-55
2022/01/30 11:40:09;;;;;;;11.10;2.83;;;10.40;99.90;;;;;;5074830;28;20587;-54
2022/01/30 11:42:40;;;;;;;21.63;3.70;;;10.50;99.90;;;;;;5082419;28;20534;-56
2022/01/30 11:45:06;;;;;;;13.63;2.97;;;10.30;99.90;;;;;;5081628;28;20217;-57
2022/01/30 11:47:58;;;;;;;9.80;2.37;;;10.20;99.90;;;;;;5080520;28;20634;-56
2022/01/30 11:50:29;;;;;;;14.43;3.17;;;10.20;99.90;;;;;;5082399;28;20197;-55
2022/01/30 11:52:59;;;;;;;19.03;2.87;;;9.90;99.90;;;;;;5080799;28;20215;-56
2022/01/30 11:55:50;;;;;;;10.47;2.77;;;10.20;99.90;;;;;;5069889;28;20437;-57
2022/01/30 11:58:32;;;;;;;9.10;2.70;;;10.00;99.90;;;;;;5088728;28;20635;-55
2022/01/30 12:01:01;;;;;;;16.47;2.83;;;10.00;99.90;;;;;;5089676;28;20213;-57
2022/01/30 12:03:35;;;;;;;18.87;3.80;;;10.20;99.90;;;;;;5078077;28;20229;-56
2022/01/30 12:06:25;;;;;;;15.37;2.80;;;10.90;99.90;;;;;;5078367;28;20261;-56
2022/01/30 12:08:57;;;;;;;8.60;2.80;;;11.30;99.90;;;;;;5063664;28;20234;-56
2022/01/30 12:11:47;;;;;;;12.37;3.50;;;11.40;99.90;;;;;;5076308;28;20306;-55
2022/01/30 12:14:20;;;;;;;17.97;3.50;;;11.60;99.90;;;;;;5043828;28;20264;-56
2022/01/30 12:16:57;;;;;;;16.50;3.50;;;11.10;99.90;;;;;;5075686;28;20202;-55
2022/01/30 12:19:33;;;;;;;15.90;3.10;;;11.20;99.90;;;;;;5045995;28;20201;-54
2022/01/30 12:22:23;;;;;;;17.13;3.83;;;11.20;99.90;;;;;;5078365;28;20203;-55
2022/01/30 12:24:53;;;;;;;17.37;4.07;;;11.10;99.90;;;;;;5072223;28;20288;-54
2022/01/30 12:27:20;;;;;;;16.17;3.30;;;11.40;99.90;;;;;;5078440;28;20280;-56
2022/01/30 12:29:51;;;;;;;21.23;3.30;;;11.00;99.90;;;;;;5074748;28;20211;-55
2022/01/30 12:32:23;;;;;;;14.57;3.57;;;11.50;99.90;;;;;;5077608;28;20194;-55
2022/01/30 12:34:56;;;;;;;14.30;3.03;;;11.60;99.90;;;;;;5073671;28;20219;-55
2022/01/30 12:37:27;;;;;;;13.37;3.23;;;11.90;99.90;;;;;;5078344;28;20553;-58
2022/01/30 12:39:55;;;;;;;11.50;3.00;;;12.50;99.90;;;;;;5075170;28;20227;-55
2022/01/30 12:42:23;;;;;;;15.57;3.00;;;12.40;99.90;;;;;;5069762;28;20239;-56
2022/01/30 12:44:50;;;;;;;15.63;3.33;;;12.30;99.90;;;;;;5066092;28;20667;-55
2022/01/30 12:47:17;;;;;;;10.17;2.90;;;12.40;99.90;;;;;;5076412;28;20251;-53
2022/01/30 12:49:52;;;;;;;14.23;2.70;;;12.40;99.90;;;;;;5074461;28;20231;-56
2022/01/30 12:54:57;;;;;;;10.50;2.80;;;11.70;99.90;;;;;;5076606;28;20245;-56
2022/01/30 12:57:26;;;;;;;10.27;3.03;;;11.60;99.90;;;;;;5093082;28;20227;-55
2022/01/30 12:59:56;;;;;;;12.23;3.43;;;11.60;99.90;;;;;;5089366;28;20245;-55
2022/01/30 13:02:34;;;;;;;13.83;3.07;;;11.60;99.90;;;;;;5075488;28;20417;-55
2022/01/30 13:05:04;;;;;;;17.10;3.47;;;12.00;99.90;;;;;;5080600;28;20643;-55
2022/01/30 13:07:31;;;;;;;9.60;3.13;;;11.90;99.90;;;;;;5084434;28;20203;-55
2022/01/30 13:10:06;;;;;;;16.27;2.90;;;12.00;99.90;;;;;;5077119;28;20227;-57
2022/01/30 13:12:33;;;;;;;17.73;3.93;;;12.00;99.90;;;;;;5082187;28;20721;-55
2022/01/30 13:15:05;;;;;;;14.27;3.60;;;11.00;99.90;;;;;;5078038;28;20276;-56
2022/01/30 13:17:32;;;;;;;15.00;3.40;;;11.00;99.90;;;;;;5082928;28;20235;-56
2022/01/30 13:20:00;;;;;;;15.13;3.63;;;10.60;99.90;;;;;;5067334;28;21037;-54
2022/01/30 13:22:36;;;;;;;16.27;2.80;;;10.20;99.90;;;;;;5079721;28;20198;-54
2022/01/30 13:25:14;;;;;;;16.23;3.17;;;10.10;99.90;;;;;;5081256;28;20618;-53
2022/01/30 13:27:51;;;;;;;19.47;3.30;;;9.90;99.90;;;;;;5082707;28;20766;-56
2022/01/30 13:30:32;;;;;;;12.30;3.20;;;10.00;99.90;;;;;;5081600;28;20209;-56
2022/01/30 13:32:59;;;;;;;14.23;3.07;;;10.20;99.90;;;;;;5082950;28;20643;-55
2022/01/30 13:35:29;;;;;;;16.03;3.53;;;10.20;99.90;;;;;;5065451;28;20667;-56
2022/01/30 13:38:01;;;;;;;19.20;2.80;;;10.30;99.90;;;;;;5080947;28;20293;-56
2022/01/30 13:40:42;;;;;;;15.10;3.20;;;10.30;99.90;;;;;;5072174;28;20696;-54
2022/01/30 13:43:17;;;;;;;13.80;3.10;;;10.10;99.90;;;;;;5080567;28;20209;-54
2022/01/30 13:48:12;;;;;;;14.60;3.03;;;9.70;99.90;;;;;;5083988;28;20202;-57
2022/01/30 13:50:43;;;;;;;12.23;3.33;;;9.50;99.90;;;;;;5079525;28;20653;-57
2022/01/30 13:53:15;;;;;;;15.10;3.73;;;9.60;99.90;;;;;;5079421;28;20203;-57
2022/01/30 13:55:57;;;;;;;15.93;3.70;;;9.60;99.90;;;;;;5074505;28;20217;-57